Time;durP1;ratioP1;P1;durP2;ratioP2;P2;SDS_P1;SDS_P2;PMS_P1;PMS_P2;Temp;Humidity;BMP_temperature;BMP_pressure;BME280_temperature;BME280_humidity;BME280_pressure;Samples;Min_cycle;Max_cycle;Signal;HPM_P1;HPM_P2
2023/04/16 00:00:33;;;;;;;18.53;5.10;;;9.80;99.30;;;;;;5056899;28;20384;-82
2023/04/16 00:02:59;;;;;;;17.50;5.90;;;9.80;99.80;;;;;;5056464;28;20032;-83
2023/04/16 00:05:26;;;;;;;13.27;4.60;;;9.80;99.80;;;;;;5074209;28;20051;-84
2023/04/16 00:07:51;;;;;;;18.10;5.50;;;9.80;99.90;;;;;;5056533;28;20029;-83
2023/04/16 00:10:17;;;;;;;17.10;5.20;;;9.70;99.90;;;;;;5056295;28;20119;-83
2023/04/16 00:12:43;;;;;;;12.30;4.60;;;9.80;99.90;;;;;;5073051;28;20427;-82
2023/04/16 00:15:08;;;;;;;18.60;5.67;;;9.70;99.90;;;;;;5072760;28;20020;-81
2023/04/16 00:17:34;;;;;;;14.40;5.50;;;9.70;99.90;;;;;;5056185;28;20020;-84
2023/04/16 00:20:00;;;;;;;12.73;4.93;;;9.80;99.90;;;;;;5056153;28;20472;-83
2023/04/16 00:22:25;;;;;;;16.73;5.63;;;9.70;99.90;;;;;;5072708;28;20017;-84
2023/04/16 00:24:51;;;;;;;17.90;6.17;;;9.70;99.90;;;;;;5055873;28;20206;-82
2023/04/16 00:27:18;;;;;;;19.33;6.73;;;9.70;99.90;;;;;;5056119;28;20598;-83
2023/04/16 00:29:44;;;;;;;20.30;7.20;;;9.70;99.90;;;;;;5072451;28;20024;-83
2023/04/16 00:32:09;;;;;;;16.57;5.70;;;9.70;99.90;;;;;;5072806;28;20035;-83
2023/04/16 00:34:35;;;;;;;13.70;5.97;;;9.70;99.90;;;;;;5055777;28;20033;-83
2023/04/16 00:37:01;;;;;;;15.50;6.00;;;9.70;99.90;;;;;;5055917;28;20032;-83
2023/04/16 00:39:26;;;;;;;16.47;6.27;;;9.70;99.90;;;;;;5055874;28;20032;-83
2023/04/16 00:41:52;;;;;;;17.77;6.33;;;9.70;99.90;;;;;;5073743;28;20033;-83
2023/04/16 00:44:18;;;;;;;15.47;6.63;;;9.70;99.90;;;;;;5055452;28;20391;-82
2023/04/16 00:46:44;;;;;;;19.63;6.47;;;9.70;99.90;;;;;;5055603;28;20472;-82
2023/04/16 00:49:11;;;;;;;21.77;7.60;;;9.70;99.90;;;;;;5071874;28;20094;-82
2023/04/16 00:51:36;;;;;;;17.67;6.87;;;9.70;99.90;;;;;;5055592;28;20035;-83
2023/04/16 00:54:02;;;;;;;18.43;7.40;;;9.70;99.90;;;;;;5072380;28;20032;-83
2023/04/16 00:56:28;;;;;;;15.33;6.53;;;9.70;99.90;;;;;;5055516;28;20384;-82
2023/04/16 00:58:57;;;;;;;17.70;6.90;;;9.70;99.90;;;;;;5055488;28;20073;-83
2023/04/16 01:01:23;;;;;;;16.97;6.37;;;9.70;99.90;;;;;;5072066;28;20123;-82
2023/04/16 01:03:49;;;;;;;21.60;7.53;;;9.70;99.90;;;;;;5055117;28;20190;-81
2023/04/16 01:06:18;;;;;;;22.10;7.80;;;9.70;99.90;;;;;;5072419;28;20031;-83
2023/04/16 01:08:45;;;;;;;19.57;7.60;;;9.70;99.90;;;;;;5055358;28;20025;-82
2023/04/16 01:11:11;;;;;;;23.47;8.87;;;9.60;99.90;;;;;;5055734;28;20036;-84
2023/04/16 01:13:39;;;;;;;26.43;8.43;;;9.70;99.90;;;;;;5072063;28;20039;-82
2023/04/16 01:16:07;;;;;;;24.43;7.97;;;9.60;99.90;;;;;;5055621;28;20121;-82
2023/04/16 01:18:32;;;;;;;19.43;7.73;;;9.70;99.90;;;;;;5073177;28;20029;-82
2023/04/16 01:20:58;;;;;;;18.70;7.80;;;9.60;99.90;;;;;;5073290;28;20039;-83
2023/04/16 01:23:24;;;;;;;26.23;9.97;;;9.70;99.90;;;;;;5055169;28;20028;-83
2023/04/16 01:25:49;;;;;;;20.27;8.37;;;9.70;99.90;;;;;;5072142;28;20032;-82
2023/04/16 01:28:15;;;;;;;23.03;10.73;;;9.70;99.90;;;;;;5055427;28;20029;-83
2023/04/16 01:30:41;;;;;;;22.90;8.60;;;9.70;99.90;;;;;;5072338;28;20036;-83
2023/04/16 01:33:09;;;;;;;25.27;8.77;;;9.70;99.90;;;;;;5055243;28;20036;-82
2023/04/16 01:35:34;;;;;;;27.20;10.23;;;9.70;99.90;;;;;;5073076;28;20125;-84
2023/04/16 01:38:00;;;;;;;29.43;11.00;;;9.70;99.90;;;;;;5072145;28;20067;-84
2023/04/16 01:40:26;;;;;;;30.60;10.87;;;9.70;99.90;;;;;;5055124;28;20369;-82
2023/04/16 01:42:51;;;;;;;23.50;9.17;;;9.70;99.90;;;;;;5071783;28;20036;-83
2023/04/16 01:45:17;;;;;;;26.70;10.27;;;9.70;99.90;;;;;;5055228;28;20033;-82
2023/04/16 01:47:43;;;;;;;27.90;10.40;;;9.70;99.90;;;;;;5072102;28;20036;-83
2023/04/16 01:50:09;;;;;;;26.73;11.13;;;9.70;99.90;;;;;;5055126;28;20035;-83
2023/04/16 01:52:35;;;;;;;31.13;11.63;;;9.70;99.90;;;;;;5055308;28;20028;-83
2023/04/16 01:55:01;;;;;;;27.93;11.03;;;9.70;99.90;;;;;;5055605;28;20552;-83
2023/04/16 01:57:27;;;;;;;25.13;11.53;;;9.80;99.90;;;;;;5055424;28;20056;-83
2023/04/16 01:59:52;;;;;;;25.33;10.67;;;9.80;99.90;;;;;;5056900;28;20033;-83
2023/04/16 02:02:18;;;;;;;32.37;11.10;;;9.80;99.90;;;;;;5057074;28;20054;-83
2023/04/16 02:04:45;;;;;;;32.20;11.27;;;9.80;99.90;;;;;;5058458;28;20474;-83
2023/04/16 02:07:11;;;;;;;27.40;10.30;;;9.80;99.90;;;;;;5058723;28;20112;-83
2023/04/16 02:09:38;;;;;;;29.33;11.17;;;9.80;99.90;;;;;;5076168;28;20017;-83
2023/04/16 02:12:04;;;;;;;24.97;10.90;;;9.80;99.90;;;;;;5076402;28;20020;-83
2023/04/16 02:14:31;;;;;;;29.37;11.00;;;9.80;99.90;;;;;;5076544;28;20089;-82
2023/04/16 02:16:57;;;;;;;25.83;12.00;;;9.90;99.90;;;;;;5076376;28;20082;-83
2023/04/16 02:19:23;;;;;;;26.23;11.77;;;9.80;99.90;;;;;;5075243;28;20028;-82
2023/04/16 02:21:51;;;;;;;24.23;10.67;;;9.80;99.90;;;;;;5075282;28;20020;-82
2023/04/16 02:24:17;;;;;;;31.13;12.50;;;9.80;99.90;;;;;;5074845;28;20027;-81
2023/04/16 02:26:43;;;;;;;28.07;11.90;;;9.80;99.90;;;;;;5058465;28;20115;-83
2023/04/16 02:29:09;;;;;;;26.50;11.03;;;9.80;99.90;;;;;;5058191;28;20021;-84
2023/04/16 02:31:35;;;;;;;24.90;12.00;;;9.80;99.90;;;;;;5058139;28;20023;-83
2023/04/16 02:34:01;;;;;;;24.60;11.40;;;9.80;99.90;;;;;;5058432;28;20115;-82
2023/04/16 02:36:26;;;;;;;32.90;13.00;;;9.80;99.90;;;;;;5058159;28;20024;-83
2023/04/16 02:38:52;;;;;;;28.80;12.80;;;9.80;99.90;;;;;;5057903;28;20031;-83
2023/04/16 02:41:18;;;;;;;30.33;12.30;;;9.90;99.90;;;;;;5075214;28;20020;-83
2023/04/16 02:43:44;;;;;;;30.63;13.30;;;9.80;99.90;;;;;;5074760;28;20025;-83
2023/04/16 02:46:09;;;;;;;29.33;11.17;;;9.80;99.90;;;;;;5074683;28;20016;-84
2023/04/16 02:48:35;;;;;;;29.30;12.37;;;9.80;99.90;;;;;;5057906;28;20127;-83
2023/04/16 02:51:00;;;;;;;26.03;11.33;;;9.80;99.90;;;;;;5057873;28;20027;-83
2023/04/16 02:53:26;;;;;;;28.93;12.43;;;9.80;99.90;;;;;;5057868;28;20075;-83
2023/04/16 02:55:53;;;;;;;27.10;11.67;;;9.80;99.90;;;;;;5057674;28;20021;-81
2023/04/16 02:58:23;;;;;;;27.03;12.37;;;9.80;99.90;;;;;;5074271;28;20032;-84
2023/04/16 03:00:50;;;;;;;32.43;14.07;;;9.90;99.90;;;;;;5058010;28;20047;-83
2023/04/16 03:03:16;;;;;;;27.30;12.73;;;9.80;99.90;;;;;;5074113;28;20033;-82
2023/04/16 03:05:42;;;;;;;28.23;12.93;;;9.80;99.90;;;;;;5074224;28;20044;-83
2023/04/16 03:08:07;;;;;;;40.40;14.10;;;9.80;99.90;;;;;;5057723;28;20021;-82
2023/04/16 03:10:36;;;;;;;29.33;12.73;;;9.90;99.90;;;;;;5074259;28;20117;-83
2023/04/16 03:13:03;;;;;;;25.30;13.07;;;9.80;99.90;;;;;;5073692;28;20016;-81
2023/04/16 03:15:29;;;;;;;31.23;13.87;;;9.80;99.90;;;;;;5073959;28;20495;-82
2023/04/16 03:17:55;;;;;;;27.03;13.73;;;9.80;99.90;;;;;;5057677;28;20025;-83
2023/04/16 03:20:21;;;;;;;31.87;14.50;;;9.90;99.90;;;;;;5057373;28;20374;-83
2023/04/16 03:22:47;;;;;;;32.07;12.93;;;9.90;99.90;;;;;;5057319;28;20028;-83
2023/04/16 03:25:13;;;;;;;28.03;12.53;;;9.90;99.90;;;;;;5074014;28;20113;-82
2023/04/16 03:27:38;;;;;;;31.10;12.67;;;9.90;99.90;;;;;;5057100;28;20082;-82
2023/04/16 03:30:11;;;;;;;31.27;13.13;;;9.90;99.90;;;;;;5075012;28;20025;-82
2023/04/16 03:32:37;;;;;;;31.47;13.07;;;9.90;99.90;;;;;;5075219;28;20035;-83
2023/04/16 03:35:07;;;;;;;30.17;14.40;;;9.90;99.90;;;;;;5067946;28;20029;-83
2023/04/16 03:37:33;;;;;;;31.73;14.10;;;9.90;99.90;;;;;;5076695;28;20474;-82
2023/04/16 03:39:59;;;;;;;33.67;13.70;;;10.00;99.90;;;;;;5073726;28;20883;-84
2023/04/16 03:42:25;;;;;;;32.90;13.67;;;9.90;99.90;;;;;;5073470;28;20039;-82
2023/04/16 03:44:52;;;;;;;35.30;15.20;;;9.90;99.90;;;;;;5073414;28;20029;-82
2023/04/16 03:47:18;;;;;;;32.83;14.50;;;9.90;99.90;;;;;;5058233;28;20056;-82
2023/04/16 03:49:44;;;;;;;33.73;15.50;;;9.90;99.90;;;;;;5056652;28;20119;-83
2023/04/16 03:52:10;;;;;;;29.57;14.47;;;9.90;99.90;;;;;;5056821;28;20110;-83
2023/04/16 03:54:35;;;;;;;30.87;13.33;;;9.90;99.90;;;;;;5056751;28;20113;-83
2023/04/16 03:57:01;;;;;;;29.23;15.30;;;9.90;99.90;;;;;;5074329;28;20035;-82
2023/04/16 03:59:27;;;;;;;28.90;15.20;;;9.90;99.90;;;;;;5075068;28;20427;-83
2023/04/16 04:01:53;;;;;;;31.83;14.30;;;9.90;99.90;;;;;;5058887;28;20024;-83
2023/04/16 04:04:18;;;;;;;30.20;14.37;;;9.90;99.90;;;;;;5073812;28;20090;-83
2023/04/16 04:06:45;;;;;;;28.03;14.60;;;10.00;99.90;;;;;;5056357;28;20025;-82
2023/04/16 04:09:12;;;;;;;33.10;13.90;;;10.00;99.90;;;;;;5056414;28;20031;-82
2023/04/16 04:11:37;;;;;;;28.97;13.20;;;10.00;99.90;;;;;;5057104;28;20131;-83
2023/04/16 04:14:04;;;;;;;33.90;16.27;;;10.00;99.90;;;;;;5057424;28;20488;-83
2023/04/16 04:16:33;;;;;;;35.80;14.57;;;10.00;99.90;;;;;;5075269;28;20021;-83
2023/04/16 04:18:59;;;;;;;28.83;13.67;;;10.00;99.90;;;;;;5056493;28;20174;-83
2023/04/16 04:21:27;;;;;;;36.80;15.87;;;10.00;99.90;;;;;;5055979;28;20024;-83
2023/04/16 04:23:52;;;;;;;34.53;15.70;;;10.00;99.90;;;;;;5065316;28;20373;-84
2023/04/16 04:26:18;;;;;;;33.23;16.27;;;10.00;99.90;;;;;;5056428;28;20028;-82
2023/04/16 04:28:44;;;;;;;39.63;16.53;;;9.90;99.90;;;;;;5067115;28;20074;-83
2023/04/16 04:31:09;;;;;;;34.43;15.47;;;10.00;99.90;;;;;;5053962;28;20025;-82
2023/04/16 04:33:35;;;;;;;36.70;16.47;;;10.00;99.90;;;;;;5071432;28;20420;-77
2023/04/16 04:36:01;;;;;;;35.27;15.90;;;9.90;99.90;;;;;;5055833;28;20520;-77
2023/04/16 04:38:26;;;;;;;41.13;18.17;;;10.00;99.90;;;;;;5055895;28;20453;-76
2023/04/16 04:40:52;;;;;;;39.43;16.63;;;10.00;99.90;;;;;;5055803;28;20024;-77
2023/04/16 04:43:19;;;;;;;37.43;17.20;;;10.00;99.90;;;;;;5072691;28;20427;-77
2023/04/16 04:45:45;;;;;;;36.60;16.50;;;10.00;99.90;;;;;;5072395;28;20021;-77
2023/04/16 04:48:11;;;;;;;40.30;19.13;;;10.00;99.90;;;;;;5056005;28;20017;-77
2023/04/16 04:50:37;;;;;;;42.47;18.00;;;9.90;99.90;;;;;;5055686;28;20032;-77
2023/04/16 04:53:08;;;;;;;42.30;18.33;;;9.90;99.90;;;;;;5072253;28;20021;-77
2023/04/16 04:55:37;;;;;;;40.73;19.23;;;10.00;99.90;;;;;;5056344;28;20426;-77
2023/04/16 04:58:07;;;;;;;40.07;17.53;;;10.00;99.90;;;;;;5055716;28;20421;-77
2023/04/16 05:00:34;;;;;;;40.43;16.87;;;9.90;99.90;;;;;;5055929;28;20071;-77
2023/04/16 05:03:04;;;;;;;39.13;16.10;;;9.90;99.90;;;;;;5055370;28;20500;-77
2023/04/16 05:05:30;;;;;;;41.63;18.60;;;9.90;99.90;;;;;;5071999;28;20040;-77
2023/04/16 05:07:56;;;;;;;41.57;18.30;;;9.90;99.90;;;;;;5055461;28;20027;-77
2023/04/16 05:10:21;;;;;;;42.77;19.70;;;10.00;99.90;;;;;;5055510;28;20074;-77
2023/04/16 05:12:47;;;;;;;39.57;18.87;;;9.90;99.90;;;;;;5055518;28;20031;-77
2023/04/16 05:15:13;;;;;;;39.30;19.60;;;9.90;99.90;;;;;;5055667;28;20024;-77
2023/04/16 05:17:39;;;;;;;46.77;20.30;;;9.90;99.90;;;;;;5072092;28;20431;-77
2023/04/16 05:20:06;;;;;;;38.70;18.70;;;9.90;99.90;;;;;;5055295;28;20074;-78
2023/04/16 05:22:32;;;;;;;37.93;18.80;;;9.90;99.90;;;;;;5055444;28;20530;-77
2023/04/16 05:24:57;;;;;;;40.67;18.57;;;9.90;99.90;;;;;;5071985;28;20021;-77
2023/04/16 05:27:23;;;;;;;45.23;19.67;;;9.90;99.90;;;;;;5055154;28;20059;-77
2023/04/16 05:29:49;;;;;;;36.27;18.87;;;9.90;99.90;;;;;;5071746;28;20360;-77
2023/04/16 05:32:14;;;;;;;35.77;18.87;;;9.90;99.90;;;;;;5071838;28;20021;-77
2023/04/16 05:34:40;;;;;;;36.17;18.67;;;9.90;99.90;;;;;;5055195;28;20484;-77
2023/04/16 05:37:06;;;;;;;33.13;17.17;;;9.90;99.90;;;;;;5058627;28;20501;-77
2023/04/16 05:39:31;;;;;;;37.67;19.07;;;9.90;99.90;;;;;;5059123;28;20035;-77
2023/04/16 05:41:57;;;;;;;32.60;16.40;;;10.00;99.90;;;;;;5059029;28;20119;-77
2023/04/16 05:44:22;;;;;;;32.20;16.83;;;10.00;99.90;;;;;;5061330;28;20514;-77
2023/04/16 05:46:48;;;;;;;32.13;16.93;;;10.00;99.90;;;;;;5054808;28;20503;-77
2023/04/16 05:49:14;;;;;;;31.87;15.53;;;10.00;99.90;;;;;;5054300;28;20050;-77
2023/04/16 05:51:40;;;;;;;33.20;17.60;;;10.10;99.90;;;;;;5054415;28;20500;-77
2023/04/16 05:54:05;;;;;;;39.07;18.97;;;10.10;99.90;;;;;;5069620;28;20062;-77
2023/04/16 05:56:31;;;;;;;35.07;16.43;;;10.10;99.90;;;;;;5058655;28;20063;-77
2023/04/16 05:58:57;;;;;;;34.73;15.77;;;10.00;99.90;;;;;;5058009;28;20032;-77
2023/04/16 06:01:22;;;;;;;33.33;15.80;;;10.00;99.90;;;;;;5058704;28;20035;-77
2023/04/16 06:03:48;;;;;;;32.30;16.20;;;10.10;99.90;;;;;;5075106;28;20072;-77
2023/04/16 06:06:14;;;;;;;30.90;16.70;;;10.10;99.90;;;;;;5054957;28;20029;-77
2023/04/16 06:08:39;;;;;;;29.00;15.97;;;10.10;99.90;;;;;;5046794;28;20033;-78
2023/04/16 06:11:05;;;;;;;31.80;14.87;;;10.20;99.90;;;;;;5058275;28;20033;-77
2023/04/16 06:13:31;;;;;;;27.87;15.10;;;10.10;99.90;;;;;;5058712;28;20037;-78
2023/04/16 06:15:56;;;;;;;32.03;15.30;;;10.20;99.90;;;;;;5058374;28;20093;-78
2023/04/16 06:18:22;;;;;;;33.57;16.90;;;10.20;99.90;;;;;;5058484;28;20025;-78
2023/04/16 06:20:48;;;;;;;27.87;14.53;;;10.20;99.90;;;;;;5058353;28;20119;-78
2023/04/16 06:23:14;;;;;;;28.17;14.70;;;10.20;99.90;;;;;;5076353;28;20035;-78
2023/04/16 06:25:40;;;;;;;32.73;15.03;;;10.20;99.90;;;;;;5058138;28;20490;-78
2023/04/16 06:28:05;;;;;;;27.63;14.63;;;10.20;99.90;;;;;;5058025;28;20032;-78
2023/04/16 06:30:32;;;;;;;28.17;13.70;;;10.20;99.90;;;;;;5074849;28;20465;-78
2023/04/16 06:32:57;;;;;;;27.17;14.27;;;10.30;99.90;;;;;;5074530;28;20165;-78
2023/04/16 06:35:23;;;;;;;25.17;13.20;;;10.20;99.90;;;;;;5057952;28;20071;-78
2023/04/16 06:37:49;;;;;;;32.53;13.87;;;10.30;99.90;;;;;;5074982;28;20032;-78
2023/04/16 06:40:15;;;;;;;28.57;14.60;;;10.40;99.90;;;;;;5058507;28;20465;-78
2023/04/16 06:42:41;;;;;;;30.43;15.43;;;10.40;99.90;;;;;;5075932;28;20082;-77
2023/04/16 06:45:08;;;;;;;31.13;15.37;;;10.40;99.90;;;;;;5057811;28;20033;-78
2023/04/16 06:47:33;;;;;;;28.03;15.13;;;10.40;99.90;;;;;;5073731;28;20029;-77
2023/04/16 06:49:59;;;;;;;26.53;14.30;;;10.50;99.90;;;;;;5057784;28;20056;-77
2023/04/16 06:52:25;;;;;;;29.10;14.43;;;10.50;99.90;;;;;;5074513;28;20020;-78
2023/04/16 06:54:50;;;;;;;31.33;15.93;;;10.60;99.90;;;;;;5074441;28;20415;-77
2023/04/16 06:57:16;;;;;;;34.70;15.23;;;10.60;99.90;;;;;;5057606;28;20025;-77
2023/04/16 06:59:41;;;;;;;31.27;14.20;;;10.60;99.90;;;;;;5057609;28;20037;-77
2023/04/16 07:02:09;;;;;;;30.37;15.00;;;10.60;99.90;;;;;;5057539;28;20042;-77
2023/04/16 07:04:35;;;;;;;31.03;15.37;;;10.70;99.90;;;;;;5073928;28;20055;-77
2023/04/16 07:07:00;;;;;;;22.73;13.50;;;10.70;99.90;;;;;;5057528;28;20028;-77
2023/04/16 07:09:26;;;;;;;27.93;14.00;;;10.80;99.90;;;;;;5057479;28;20362;-77
2023/04/16 07:11:53;;;;;;;27.37;14.63;;;10.80;99.90;;;;;;5057237;28;20070;-77
2023/04/16 07:14:18;;;;;;;25.52;12.73;;;10.80;99.90;;;;;;5057283;28;20477;-78
2023/04/16 07:16:44;;;;;;;24.90;14.57;;;10.90;99.90;;;;;;5057059;28;20043;-78
2023/04/16 07:19:10;;;;;;;29.20;15.40;;;11.00;99.90;;;;;;5073943;28;20530;-77
2023/04/16 07:21:35;;;;;;;25.33;14.85;;;11.00;99.90;;;;;;5073831;28;20442;-78
2023/04/16 07:24:02;;;;;;;26.88;14.00;;;11.00;99.90;;;;;;5074158;28;20066;-78
2023/04/16 07:26:27;;;;;;;23.25;12.95;;;11.00;99.90;;;;;;5057384;28;20035;-78
2023/04/16 07:28:53;;;;;;;34.28;15.80;;;11.00;99.90;;;;;;5057643;28;20036;-78
2023/04/16 07:31:19;;;;;;;30.20;15.35;;;11.10;99.90;;;;;;5055772;28;20027;-78
2023/04/16 07:33:44;;;;;;;29.43;16.17;;;11.00;99.90;;;;;;5041569;28;20033;-78
2023/04/16 07:36:10;;;;;;;26.08;13.77;;;11.10;99.90;;;;;;5056993;28;20025;-78
2023/04/16 07:38:36;;;;;;;25.05;12.98;;;11.10;99.90;;;;;;5056694;28;20028;-78
2023/04/16 07:41:01;;;;;;;25.92;14.20;;;11.10;99.90;;;;;;5057143;28;20123;-78
2023/04/16 07:43:27;;;;;;;25.42;12.93;;;11.10;99.90;;;;;;5072728;28;20392;-77
2023/04/16 07:45:52;;;;;;;22.30;13.83;;;11.20;99.90;;;;;;5056641;28;20102;-77
2023/04/16 07:48:18;;;;;;;25.10;14.77;;;11.20;99.90;;;;;;5056594;28;20033;-77
2023/04/16 07:50:44;;;;;;;27.17;13.55;;;11.20;99.90;;;;;;5056573;28;20029;-77
2023/04/16 07:53:09;;;;;;;27.00;14.80;;;11.20;99.90;;;;;;5056590;28;20050;-77
2023/04/16 07:55:35;;;;;;;23.73;14.20;;;11.20;99.90;;;;;;5056576;28;20024;-78
2023/04/16 07:58:01;;;;;;;27.38;14.05;;;11.30;99.90;;;;;;5056221;28;20029;-78
2023/04/16 08:00:28;;;;;;;28.38;15.90;;;11.40;99.90;;;;;;5056623;28;20070;-78
2023/04/16 08:02:53;;;;;;;24.90;13.73;;;11.40;99.90;;;;;;5056460;28;20028;-79
2023/04/16 08:05:19;;;;;;;32.83;15.50;;;11.40;99.90;;;;;;5072669;28;20053;-77
2023/04/16 08:07:45;;;;;;;35.03;16.23;;;11.40;99.90;;;;;;5073128;28;20384;-78
2023/04/16 08:10:11;;;;;;;30.50;17.02;;;11.40;99.90;;;;;;5072910;28;20036;-79
2023/04/16 08:12:36;;;;;;;34.58;17.20;;;11.40;99.90;;;;;;5056156;28;20034;-77
2023/04/16 08:15:02;;;;;;;26.58;14.18;;;11.40;99.90;;;;;;5056194;28;20484;-78
2023/04/16 08:17:28;;;;;;;32.60;15.93;;;11.40;99.90;;;;;;5056179;28;20028;-78
2023/04/16 08:19:54;;;;;;;28.10;15.97;;;11.40;99.90;;;;;;5056208;28;20102;-79
2023/04/16 08:22:21;;;;;;;30.13;15.95;;;11.30;99.90;;;;;;5072561;28;20131;-77
2023/04/16 08:24:46;;;;;;;32.50;17.08;;;11.40;99.90;;;;;;5056022;28;20203;-77
2023/04/16 08:27:12;;;;;;;35.53;17.02;;;11.40;99.90;;;;;;5056058;28;20058;-77
2023/04/16 08:29:38;;;;;;;28.75;16.75;;;11.40;99.90;;;;;;5055786;28;20465;-76
2023/04/16 08:32:04;;;;;;;29.25;14.48;;;11.40;99.90;;;;;;5072285;28;20020;-79
2023/04/16 08:34:29;;;;;;;31.90;17.08;;;11.40;99.90;;;;;;5055628;28;20033;-78
2023/04/16 08:36:55;;;;;;;33.00;17.77;;;11.50;99.90;;;;;;5055528;28;20556;-78
2023/04/16 08:39:21;;;;;;;31.35;17.23;;;11.60;99.90;;;;;;5055546;28;20111;-78
2023/04/16 08:41:46;;;;;;;33.10;16.02;;;11.50;99.90;;;;;;5072265;28;20028;-78
2023/04/16 08:44:32;;;;;;;26.83;15.25;;;11.60;99.90;;;;;;5072478;28;20043;-78
2023/04/16 08:47:00;;;;;;;35.17;16.58;;;11.60;99.90;;;;;;5072143;28;20473;-77
2023/04/16 08:49:27;;;;;;;29.85;17.88;;;11.70;99.90;;;;;;5055574;28;20066;-78
2023/04/16 08:51:54;;;;;;;30.92;17.38;;;11.70;99.90;;;;;;5072156;28;20029;-78
2023/04/16 08:54:45;;;;;;;31.90;18.33;;;11.80;99.90;;;;;;5092284;28;20488;-79
2023/04/16 08:57:15;;;;;;;29.58;16.10;;;11.80;99.90;;;;;;5092201;28;20384;-78
2023/04/16 08:59:45;;;;;;;32.97;16.50;;;12.00;99.90;;;;;;5092303;28;20042;-78
2023/04/16 09:02:12;;;;;;;28.58;17.67;;;12.00;99.90;;;;;;5092368;28;20051;-77
2023/04/16 09:04:40;;;;;;;29.45;17.33;;;12.10;99.90;;;;;;5075177;28;20513;-78
2023/04/16 09:07:08;;;;;;;33.58;17.33;;;12.10;99.90;;;;;;5092203;28;20016;-78
2023/04/16 09:09:34;;;;;;;35.63;16.55;;;12.20;99.90;;;;;;5092213;28;20016;-77
2023/04/16 09:12:00;;;;;;;31.20;18.08;;;12.30;99.90;;;;;;5083259;28;20052;-77
2023/04/16 09:14:26;;;;;;;33.53;17.27;;;12.30;99.90;;;;;;5054978;28;20113;-77
2023/04/16 09:16:56;;;;;;;32.72;16.88;;;12.30;99.90;;;;;;5072059;28;20496;-77
2023/04/16 09:19:22;;;;;;;30.23;17.05;;;12.40;99.90;;;;;;5072786;28;20063;-77
2023/04/16 09:21:48;;;;;;;34.13;17.65;;;12.50;99.90;;;;;;5054942;28;20059;-78
2023/04/16 09:24:15;;;;;;;35.72;17.75;;;12.50;99.90;;;;;;5054439;28;20024;-77
2023/04/16 09:26:42;;;;;;;37.55;18.05;;;12.50;99.90;;;;;;5054819;28;20031;-84
2023/04/16 09:29:08;;;;;;;30.75;17.17;;;12.50;99.90;;;;;;5074266;28;20103;-83
2023/04/16 09:31:34;;;;;;;34.10;17.38;;;12.60;99.90;;;;;;5055310;28;20603;-78
2023/04/16 09:34:00;;;;;;;33.88;17.48;;;12.60;99.90;;;;;;5071564;28;20028;-78
2023/04/16 09:36:26;;;;;;;34.05;17.85;;;12.70;99.90;;;;;;5073041;28;20021;-78
2023/04/16 09:38:52;;;;;;;37.90;17.83;;;12.60;99.90;;;;;;5071752;28;20024;-78
2023/04/16 09:41:23;;;;;;;33.47;19.52;;;12.60;99.90;;;;;;5055395;28;20028;-78
2023/04/16 09:44:03;;;;;;;31.08;17.08;;;12.60;99.90;;;;;;5068228;28;20043;-78
2023/04/16 09:46:40;;;;;;;31.70;17.17;;;12.70;99.90;;;;;;5061130;28;20017;-77
2023/04/16 09:49:14;;;;;;;29.88;16.58;;;12.70;99.90;;;;;;5071222;28;20025;-78
2023/04/16 09:51:41;;;;;;;31.75;15.23;;;12.80;99.90;;;;;;5055207;28;20035;-78
2023/04/16 09:54:07;;;;;;;30.48;16.55;;;12.90;99.90;;;;;;5071312;28;20162;-78
2023/04/16 09:56:37;;;;;;;30.27;16.10;;;12.90;99.90;;;;;;5071452;28;20032;-78
2023/04/16 09:59:03;;;;;;;29.13;16.40;;;13.00;99.90;;;;;;5071501;28;20547;-78
2023/04/16 10:01:30;;;;;;;31.35;15.65;;;13.00;99.70;;;;;;5054740;28;20063;-78
2023/04/16 10:03:57;;;;;;;32.70;17.17;;;13.10;99.40;;;;;;5071247;28;20423;-78
2023/04/16 10:06:25;;;;;;;31.90;17.23;;;13.20;99.30;;;;;;5071280;28;20048;-78
2023/04/16 10:08:57;;;;;;;30.58;16.63;;;13.20;98.90;;;;;;5072845;28;20547;-78
2023/04/16 10:11:23;;;;;;;33.67;18.45;;;13.30;99.00;;;;;;5055049;28;20101;-78
2023/04/16 10:13:49;;;;;;;30.30;16.52;;;13.40;98.50;;;;;;5038063;28;20473;-78
2023/04/16 10:16:15;;;;;;;30.73;15.68;;;13.50;98.40;;;;;;5071811;28;20368;-78
2023/04/16 10:18:43;;;;;;;29.70;16.17;;;13.60;98.30;;;;;;5038221;28;20025;-78
2023/04/16 10:21:12;;;;;;;26.33;14.95;;;13.60;98.20;;;;;;5071247;28;20392;-78
2023/04/16 10:23:38;;;;;;;27.20;15.90;;;13.70;97.90;;;;;;5057208;28;20036;-78
2023/04/16 10:26:05;;;;;;;29.83;16.48;;;13.80;97.70;;;;;;5075042;28;20389;-78
2023/04/16 10:28:34;;;;;;;27.58;15.23;;;13.80;97.10;;;;;;5058290;28;20470;-78
2023/04/16 10:31:02;;;;;;;32.08;16.10;;;13.80;96.80;;;;;;5058514;28;20106;-78
2023/04/16 10:33:31;;;;;;;27.63;15.32;;;13.90;96.90;;;;;;5074715;28;20028;-78
2023/04/16 10:36:11;;;;;;;30.88;15.98;;;13.90;96.50;;;;;;5074682;28;20035;-78
2023/04/16 10:38:48;;;;;;;34.22;16.80;;;14.00;96.40;;;;;;5074481;28;20029;-78
2023/04/16 10:41:15;;;;;;;26.20;15.40;;;14.10;96.20;;;;;;5074563;28;20090;-78
2023/04/16 10:43:46;;;;;;;23.52;15.13;;;14.30;96.00;;;;;;5075776;28;20060;-79
2023/04/16 10:46:25;;;;;;;28.83;14.15;;;14.40;95.70;;;;;;5074615;28;20043;-78
2023/04/16 10:48:58;;;;;;;30.58;16.70;;;14.60;95.30;;;;;;5074578;28;20025;-78
2023/04/16 10:51:31;;;;;;;27.83;14.35;;;14.70;94.80;;;;;;5074500;28;20038;-79
2023/04/16 10:54:01;;;;;;;24.60;14.27;;;14.80;94.40;;;;;;5074374;28;20032;-78
2023/04/16 10:56:31;;;;;;;29.33;15.02;;;14.90;93.90;;;;;;5074290;28;20024;-78
2023/04/16 10:58:57;;;;;;;29.52;16.30;;;14.90;93.30;;;;;;5057587;28;20024;-78
2023/04/16 11:01:34;;;;;;;26.70;13.82;;;14.90;93.10;;;;;;5057471;28;20086;-78
2023/04/16 11:04:20;;;;;;;27.40;14.32;;;14.80;92.90;;;;;;5074000;28;20382;-78
2023/04/16 11:07:14;;;;;;;26.02;14.35;;;14.80;92.60;;;;;;5075341;28;20035;-78
2023/04/16 11:09:58;;;;;;;36.17;16.02;;;14.90;92.30;;;;;;5074132;28;20078;-78
2023/04/16 11:12:39;;;;;;;27.23;13.73;;;14.90;92.10;;;;;;5073783;28;20036;-78
2023/04/16 11:15:05;;;;;;;28.35;14.40;;;15.00;91.90;;;;;;5074089;28;20074;-79
2023/04/16 11:17:45;;;;;;;26.42;14.20;;;15.20;91.70;;;;;;5074341;28;20025;-78
2023/04/16 11:20:18;;;;;;;26.63;14.00;;;15.20;91.40;;;;;;5073969;28;20151;-79
2023/04/16 11:22:47;;;;;;;23.10;13.50;;;15.30;90.90;;;;;;5074345;28;20027;-79
2023/04/16 11:25:17;;;;;;;27.80;14.27;;;15.40;90.80;;;;;;5057531;28;20039;-78
2023/04/16 11:27:43;;;;;;;26.48;13.57;;;15.40;90.40;;;;;;5058373;28;20032;-78
2023/04/16 11:30:09;;;;;;;25.48;13.93;;;15.50;90.20;;;;;;5073746;28;20032;-79
2023/04/16 11:32:37;;;;;;;22.00;14.05;;;15.60;90.20;;;;;;5057117;28;20522;-81
2023/04/16 11:35:11;;;;;;;23.92;12.27;;;15.70;89.50;;;;;;5073339;28;20483;-81
2023/04/16 11:37:38;;;;;;;20.30;11.95;;;15.70;88.60;;;;;;5074912;28;20385;-81
2023/04/16 11:40:05;;;;;;;21.67;13.02;;;15.80;88.20;;;;;;5056861;28;20024;-82
2023/04/16 11:42:32;;;;;;;24.63;13.07;;;15.90;88.10;;;;;;5073608;28;20029;-86
2023/04/16 11:45:01;;;;;;;25.38;13.20;;;15.90;88.00;;;;;;5057390;28;20024;-86
2023/04/16 11:47:29;;;;;;;23.90;13.25;;;16.00;87.30;;;;;;5073571;28;20116;-87
2023/04/16 11:49:55;;;;;;;23.25;12.45;;;16.00;86.00;;;;;;5056972;28;20028;-88
2023/04/16 11:52:28;;;;;;;19.48;12.35;;;16.10;86.10;;;;;;5073770;28;20020;-85
2023/04/16 11:54:54;;;;;;;24.80;13.05;;;16.10;85.10;;;;;;5074354;28;20063;-88
2023/04/16 11:57:24;;;;;;;21.83;12.57;;;16.20;84.10;;;;;;5073809;28;20024;-83
2023/04/16 11:59:50;;;;;;;27.33;13.20;;;16.30;83.60;;;;;;5073427;28;20054;-85
2023/04/16 12:02:16;;;;;;;22.45;11.63;;;16.40;82.70;;;;;;5075420;28;20037;-84
2023/04/16 12:04:41;;;;;;;25.73;13.73;;;16.40;81.50;;;;;;5074159;28;20432;-84
2023/04/16 12:07:13;;;;;;;21.58;11.88;;;16.40;81.30;;;;;;5058255;28;20032;-87
2023/04/16 12:09:41;;;;;;;19.85;11.30;;;16.40;81.00;;;;;;5057221;28;20029;-86
2023/04/16 12:12:29;;;;;;;18.42;10.60;;;16.50;81.40;;;;;;5073655;28;20469;-86
2023/04/16 12:14:58;;;;;;;19.15;11.02;;;16.70;81.40;;;;;;5073299;28;20017;-83
2023/04/16 12:17:24;;;;;;;21.40;13.25;;;16.90;80.70;;;;;;5073152;28;20031;-84
2023/04/16 12:19:59;;;;;;;25.60;12.57;;;17.00;79.40;;;;;;5073146;28;20021;-86
2023/04/16 12:22:39;;;;;;;24.80;13.48;;;17.10;79.10;;;;;;5057011;28;20074;-87
2023/04/16 12:25:07;;;;;;;23.23;11.27;;;17.10;78.30;;;;;;5072947;28;20107;-85
2023/04/16 12:27:46;;;;;;;25.05;13.75;;;17.10;78.10;;;;;;5073300;28;20030;-86
2023/04/16 12:30:16;;;;;;;20.42;10.45;;;17.10;77.50;;;;;;5073075;28;20048;-86
2023/04/16 12:32:44;;;;;;;19.35;10.50;;;17.10;77.60;;;;;;5073228;28;20025;-83